Terminal Aerodrome Forecast
Issued by NWS Albuquerque, NM

Home | Current Version | Previous Version | Text Only | Print | Product List | Glossary On
Versions: 1 2 3 4 5 6 7 8 9 10 11 12 13 14 15 16 17
000
FTUS45 KABQ 292124 AAB
TAFABQ
TAF AMD
KABQ 292124Z 2921/3018 13011KT P6SM VCTS SCT090CB
      TEMPO 2921/2924 09018G28KT
     FM300200 11008KT P6SM SCT080
     FM300500 VRB04KT P6SM SKC=

USA.gov is the U.S. government's official web portal to all federal, state and local government web resources and services.